createdAt,value
2018-03-31T00:01:43.210Z,51.40
2018-03-31T00:04:11.009Z,31.73
2018-03-31T00:06:37.970Z,8.95
2018-03-31T00:09:04.975Z,12.98
2018-03-31T00:11:32.702Z,11.15
2018-03-31T00:13:59.727Z,10.43
2018-03-31T00:16:26.685Z,7.70
2018-03-31T00:18:53.656Z,19.70
2018-03-31T00:21:20.681Z,7.72
2018-03-31T00:23:47.662Z,6.55
2018-03-31T00:26:15.424Z,20.45
2018-03-31T00:28:43.154Z,9.85
2018-03-31T00:31:10.230Z,8.02
2018-03-31T00:33:37.962Z,8.52
2018-03-31T00:36:05.018Z,7.62
2018-03-31T00:38:31.984Z,8.95
2018-03-31T00:40:58.959Z,6.25
2018-03-31T00:43:25.949Z,8.32
2018-03-31T00:45:52.975Z,8.07
2018-03-31T00:48:19.954Z,8.50
2018-03-31T00:50:47.011Z,6.82
2018-03-31T00:53:13.968Z,10.68
2018-03-31T00:55:41.698Z,10.90
2018-03-31T00:58:08.680Z,12.95
2018-03-31T01:00:36.453Z,9.93
2018-03-31T01:03:04.277Z,11.00
2018-03-31T01:05:31.240Z,12.40
2018-03-31T01:07:58.237Z,9.38
2018-03-31T01:10:26.017Z,9.80
2018-03-31T01:12:52.985Z,20.62
2018-03-31T01:15:19.951Z,11.73
2018-03-31T01:17:46.939Z,9.57
2018-03-31T01:20:13.914Z,9.05
2018-03-31T01:22:40.908Z,9.05
2018-03-31T01:25:08.653Z,11.18
2018-03-31T01:27:36.413Z,9.10
2018-03-31T01:30:03.377Z,10.73
2018-03-31T01:32:31.130Z,12.82
2018-03-31T01:34:58.861Z,11.32
2018-03-31T01:37:25.924Z,12.63
2018-03-31T01:39:53.675Z,17.35
2018-03-31T01:42:20.665Z,11.68
2018-03-31T01:44:48.519Z,11.98
2018-03-31T01:47:16.382Z,11.02
2018-03-31T01:49:44.140Z,10.73
2018-03-31T01:52:11.098Z,9.43
2018-03-31T01:54:38.848Z,13.32
2018-03-31T01:57:05.826Z,10.75
2018-03-31T01:59:32.815Z,13.57
2018-03-31T02:01:59.782Z,17.80
2018-03-31T02:04:26.773Z,24.25
2018-03-31T02:06:53.776Z,22.02
2018-03-31T02:09:20.775Z,22.67
2018-03-31T02:11:47.732Z,19.60
2018-03-31T02:14:14.708Z,15.73
2018-03-31T02:16:42.134Z,14.63
2018-03-31T02:19:09.183Z,20.67
2018-03-31T02:21:36.150Z,17.20
2018-03-31T02:24:03.116Z,15.25
2018-03-31T02:26:30.090Z,14.45
2018-03-31T02:28:57.050Z,12.35
2018-03-31T02:31:24.063Z,11.88
2018-03-31T02:33:51.025Z,16.08
2018-03-31T02:36:18.774Z,15.98
2018-03-31T02:38:46.497Z,14.32
2018-03-31T02:41:13.490Z,11.23
2018-03-31T02:43:41.249Z,12.02
2018-03-31T02:46:08.980Z,9.85
2018-03-31T02:48:35.968Z,10.38
2018-03-31T02:51:03.722Z,10.77
2018-03-31T02:53:30.688Z,10.77
2018-03-31T02:55:57.698Z,9.40
2018-03-31T02:58:24.658Z,11.55
2018-03-31T03:00:52.415Z,11.23
2018-03-31T03:03:19.389Z,11.05
2018-03-31T03:05:47.137Z,10.98
2018-03-31T03:08:14.114Z,10.95
2018-03-31T03:10:41.095Z,10.30
2018-03-31T03:13:08.066Z,12.30
2018-03-31T03:15:35.057Z,13.75
2018-03-31T03:18:02.207Z,12.55
2018-03-31T03:20:29.213Z,10.50
2018-03-31T03:22:57.062Z,10.48
2018-03-31T03:25:24.034Z,13.82
2018-03-31T03:27:51.865Z,13.98
2018-03-31T03:30:18.866Z,12.48
2018-03-31T03:32:45.833Z,18.52
2018-03-31T03:35:12.818Z,16.70
2018-03-31T03:37:39.778Z,22.23
2018-03-31T03:40:07.526Z,24.20
2018-03-31T03:42:34.502Z,18.12
2018-03-31T03:45:02.253Z,18.10
2018-03-31T03:47:29.218Z,15.48
2018-03-31T03:49:56.223Z,15.75
2018-03-31T03:52:23.189Z,14.35
2018-03-31T03:54:50.170Z,16.20
2018-03-31T03:57:17.137Z,15.73
2018-03-31T03:59:44.133Z,12.32
2018-03-31T04:02:11.862Z,17.17
2018-03-31T04:04:38.842Z,17.17
2018-03-31T04:07:06.580Z,20.12
2018-03-31T04:09:33.567Z,15.30
2018-03-31T04:12:00.533Z,17.90
2018-03-31T04:14:27.523Z,24.23
2018-03-31T04:16:54.514Z,20.25
2018-03-31T04:19:21.478Z,18.15
2018-03-31T04:21:48.462Z,19.15
2018-03-31T04:24:15.430Z,18.83
2018-03-31T04:26:43.177Z,27.70
2018-03-31T04:29:10.145Z,13.52
2018-03-31T04:31:37.902Z,20.37
2018-03-31T04:34:05.650Z,16.23
2018-03-31T04:36:32.610Z,15.13
2018-03-31T04:39:00.369Z,13.57
2018-03-31T04:41:27.321Z,18.83
2018-03-31T04:43:55.179Z,16.60
2018-03-31T04:46:22.152Z,17.05
2018-03-31T04:48:49.133Z,17.27
2018-03-31T04:51:16.094Z,13.18
2018-03-31T04:53:43.081Z,14.38
2018-03-31T04:56:10.802Z,16.42
2018-03-31T04:58:37.797Z,15.35
2018-03-31T05:01:05.524Z,18.45
2018-03-31T05:03:32.530Z,13.43
2018-03-31T05:05:59.487Z,18.02
2018-03-31T05:08:26.486Z,17.90
2018-03-31T05:10:54.210Z,12.63
2018-03-31T05:13:21.195Z,17.75
2018-03-31T05:15:48.965Z,19.50
2018-03-31T05:18:16.697Z,20.37
2018-03-31T05:20:43.662Z,22.75
2018-03-31T05:23:11.424Z,19.55
2018-03-31T05:25:38.412Z,16.25
2018-03-31T05:28:05.409Z,21.62
2018-03-31T05:30:32.365Z,20.83
2018-03-31T05:33:00.124Z,19.70
2018-03-31T05:35:27.080Z,17.87
2018-03-31T05:37:54.926Z,14.50
2018-03-31T05:40:21.887Z,19.48
2018-03-31T05:42:49.637Z,12.90
2018-03-31T05:45:16.598Z,11.20
2018-03-31T05:47:44.370Z,13.93
2018-03-31T05:50:12.104Z,14.00
2018-03-31T05:52:39.103Z,11.12
2018-03-31T05:55:06.062Z,11.60
2018-03-31T05:57:33.028Z,12.95
2018-03-31T06:00:00.032Z,15.63
2018-03-31T06:02:27.757Z,14.98
2018-03-31T06:04:54.753Z,15.25
2018-03-31T06:07:21.711Z,11.65
2018-03-31T06:09:48.698Z,15.23
2018-03-31T06:12:15.745Z,14.65
2018-03-31T06:14:42.744Z,12.35
2018-03-31T06:17:09.706Z,11.40
2018-03-31T06:19:36.695Z,12.70
2018-03-31T06:22:03.687Z,15.52
2018-03-31T06:24:30.674Z,13.35
2018-03-31T06:26:57.693Z,13.95
2018-03-31T06:29:24.669Z,23.85
2018-03-31T06:31:51.710Z,18.80
2018-03-31T06:34:18.763Z,14.98
2018-03-31T06:36:45.759Z,12.15
2018-03-31T06:39:12.746Z,12.80
2018-03-31T06:41:39.713Z,11.27
2018-03-31T06:44:06.684Z,11.80
2018-03-31T06:46:33.690Z,9.77
2018-03-31T06:49:00.686Z,11.10
2018-03-31T06:51:27.696Z,11.05
2018-03-31T06:53:55.426Z,10.52
2018-03-31T06:56:22.397Z,10.77
2018-03-31T06:58:49.391Z,10.65
2018-03-31T07:01:16.347Z,10.30
2018-03-31T07:03:43.325Z,11.75
2018-03-31T07:06:10.306Z,11.25
2018-03-31T07:08:38.057Z,30.52
2018-03-31T07:11:05.034Z,11.00
2018-03-31T07:13:32.769Z,12.65
2018-03-31T07:16:00.513Z,16.67
2018-03-31T07:18:27.517Z,11.35
2018-03-31T07:20:54.493Z,15.20
2018-03-31T07:23:21.487Z,7.90
2018-03-31T07:25:49.326Z,17.35
2018-03-31T07:28:16.335Z,9.93
2018-03-31T07:30:43.319Z,10.23
2018-03-31T07:33:10.296Z,10.85
2018-03-31T07:35:38.062Z,8.95
2018-03-31T07:38:05.820Z,9.30
2018-03-31T07:40:33.555Z,9.95
2018-03-31T07:43:00.521Z,10.45
2018-03-31T07:45:28.293Z,9.15
2018-03-31T07:47:56.026Z,8.70
2018-03-31T07:50:23.012Z,8.02
2018-03-31T07:52:49.993Z,9.00
2018-03-31T07:55:16.977Z,8.75
2018-03-31T07:57:44.756Z,9.85
2018-03-31T08:00:12.560Z,9.50
2018-03-31T08:02:39.530Z,8.60
2018-03-31T08:05:08.030Z,8.68
2018-03-31T08:07:34.996Z,11.05
2018-03-31T08:10:02.896Z,9.60
2018-03-31T08:12:30.588Z,8.93
2018-03-31T08:14:57.596Z,9.70
2018-03-31T08:17:24.570Z,8.45
2018-03-31T08:19:51.558Z,10.07
2018-03-31T08:22:19.327Z,10.52
2018-03-31T08:24:47.059Z,8.70
2018-03-31T08:27:14.047Z,9.07
2018-03-31T08:29:41.026Z,13.82
2018-03-31T08:32:08.058Z,11.25
2018-03-31T08:34:35.030Z,9.98
2018-03-31T08:37:02.036Z,11.63
2018-03-31T08:39:29.073Z,10.13
2018-03-31T08:41:56.818Z,10.95
2018-03-31T08:44:23.866Z,10.63
2018-03-31T08:46:50.863Z,8.75
2018-03-31T08:49:17.867Z,10.88
2018-03-31T08:51:45.603Z,9.15
2018-03-31T08:54:12.619Z,16.73
2018-03-31T08:56:39.601Z,17.67
2018-03-31T08:59:06.623Z,10.73
2018-03-31T09:01:33.595Z,12.87
2018-03-31T09:04:00.613Z,8.33
2018-03-31T09:06:27.583Z,8.83
2018-03-31T09:08:54.589Z,8.60
2018-03-31T09:11:21.576Z,9.07
2018-03-31T09:13:48.589Z,9.63
2018-03-31T09:16:15.582Z,10.77
2018-03-31T09:18:42.551Z,10.73
2018-03-31T09:21:10.336Z,11.77
2018-03-31T09:23:37.303Z,11.40
2018-03-31T09:26:04.307Z,12.10
2018-03-31T09:28:32.076Z,15.33
2018-03-31T09:30:59.830Z,13.20
2018-03-31T09:33:27.572Z,10.70
2018-03-31T09:35:54.569Z,10.70
2018-03-31T09:38:21.577Z,12.43
2018-03-31T09:40:48.562Z,11.80
2018-03-31T09:43:15.591Z,12.70
2018-03-31T09:45:43.318Z,14.17
2018-03-31T09:48:10.348Z,12.13
2018-03-31T09:50:37.305Z,12.43
2018-03-31T09:53:04.326Z,10.67
2018-03-31T09:55:31.308Z,10.70
2018-03-31T09:57:58.310Z,10.23
2018-03-31T10:00:35.276Z,11.33
2018-03-31T10:03:02.282Z,10.30
2018-03-31T10:05:29.267Z,11.47
2018-03-31T10:07:56.290Z,10.57
2018-03-31T10:10:23.351Z,10.70
2018-03-31T10:12:50.327Z,10.50
2018-03-31T10:15:17.350Z,10.60
2018-03-31T10:17:45.087Z,8.30
2018-03-31T10:20:12.078Z,7.57
2018-03-31T10:22:39.129Z,17.90
2018-03-31T10:25:06.863Z,8.57
2018-03-31T10:27:33.843Z,7.50
2018-03-31T10:30:00.887Z,7.40
2018-03-31T10:32:27.880Z,8.83
2018-03-31T10:34:54.886Z,7.70
2018-03-31T10:37:21.895Z,7.87
2018-03-31T10:39:49.645Z,6.70
2018-03-31T10:42:16.635Z,7.13
2018-03-31T10:44:43.673Z,8.23
2018-03-31T10:47:11.413Z,5.93
2018-03-31T10:49:38.416Z,8.20
2018-03-31T10:52:05.450Z,7.97
2018-03-31T10:54:32.463Z,6.53
2018-03-31T10:57:00.237Z,6.47
2018-03-31T10:59:27.978Z,7.93
2018-03-31T11:01:54.970Z,5.47
2018-03-31T11:04:21.938Z,7.37
2018-03-31T11:06:48.964Z,6.63
2018-03-31T11:09:15.944Z,5.77
2018-03-31T11:11:42.958Z,8.00
2018-03-31T11:14:09.959Z,4.20
2018-03-31T11:16:38.844Z,4.47
2018-03-31T11:19:06.011Z,5.07
2018-03-31T11:21:33.774Z,6.17
2018-03-31T11:24:01.513Z,5.43
2018-03-31T11:26:28.519Z,8.97
2018-03-31T11:28:55.493Z,2.50
2018-03-31T11:31:22.491Z,2.07
2018-03-31T11:33:50.228Z,2.13
2018-03-31T11:36:17.216Z,2.20
2018-03-31T11:38:44.367Z,2.70
2018-03-31T11:41:11.346Z,2.83
2018-03-31T11:43:38.400Z,2.53
2018-03-31T11:46:05.386Z,2.80
2018-03-31T11:48:33.189Z,2.10
2018-03-31T11:51:00.160Z,2.90
2018-03-31T11:53:27.156Z,2.97
2018-03-31T11:55:54.146Z,2.63
2018-03-31T11:58:21.150Z,3.70
2018-03-31T12:00:48.113Z,2.37
2018-03-31T12:03:15.162Z,3.17
2018-03-31T12:05:42.172Z,2.90
2018-03-31T12:08:09.990Z,3.83
2018-03-31T12:10:37.026Z,2.43
2018-03-31T12:13:04.012Z,2.07
2018-03-31T12:15:35.409Z,3.03
2018-03-31T12:18:03.512Z,2.10
2018-03-31T12:20:30.568Z,2.40
2018-03-31T12:22:57.560Z,2.50
2018-03-31T12:25:25.698Z,3.17
2018-03-31T12:27:52.677Z,2.77
2018-03-31T12:30:20.817Z,2.43
2018-03-31T12:32:47.794Z,3.80
2018-03-31T12:35:15.526Z,3.43
2018-03-31T12:37:43.683Z,3.23
2018-03-31T12:40:10.674Z,4.23
2018-03-31T12:42:38.461Z,2.10
2018-03-31T12:45:05.506Z,2.70
2018-03-31T12:47:32.504Z,2.97
2018-03-31T12:49:59.530Z,3.40
2018-03-31T12:52:26.504Z,2.93
2018-03-31T12:54:53.476Z,2.30
2018-03-31T12:57:21.230Z,2.60
2018-03-31T12:59:48.966Z,3.20
2018-03-31T13:02:15.999Z,1.87
2018-03-31T13:04:43.694Z,4.00
2018-03-31T13:07:10.658Z,2.80
2018-03-31T13:09:38.430Z,3.97
2018-03-31T13:12:05.473Z,2.67
2018-03-31T13:14:33.257Z,2.63
2018-03-31T13:17:01.400Z,3.10
2018-03-31T13:19:29.164Z,2.10
2018-03-31T13:21:56.922Z,2.83
2018-03-31T13:24:23.921Z,6.80
2018-03-31T13:26:50.898Z,2.20
2018-03-31T13:29:19.043Z,2.23
2018-03-31T13:31:46.057Z,2.20
2018-03-31T13:34:13.805Z,2.87
2018-03-31T13:36:41.564Z,5.07
2018-03-31T13:39:08.550Z,6.43
2018-03-31T13:41:35.551Z,2.30
2018-03-31T13:44:02.530Z,3.07
2018-03-31T13:46:29.519Z,3.63
2018-03-31T13:48:56.479Z,3.13
2018-03-31T13:51:23.513Z,3.00
2018-03-31T13:53:50.502Z,2.43
2018-03-31T13:56:18.224Z,2.87
2018-03-31T13:58:45.239Z,2.30
2018-03-31T14:01:12.231Z,2.33
2018-03-31T14:03:39.209Z,2.33
2018-03-31T14:06:07.845Z,2.57
2018-03-31T14:08:34.813Z,2.23
2018-03-31T14:11:01.790Z,2.07
2018-03-31T14:13:28.779Z,3.40
2018-03-31T14:15:55.744Z,2.97
2018-03-31T14:18:22.754Z,3.03
2018-03-31T14:20:49.785Z,6.80
2018-03-31T14:23:18.382Z,1.90
2018-03-31T14:25:45.342Z,2.00
2018-03-31T14:28:12.373Z,1.90
2018-03-31T14:30:39.385Z,2.67
2018-03-31T14:33:07.166Z,2.40
2018-03-31T14:35:34.938Z,3.23
2018-03-31T14:38:01.909Z,3.00
2018-03-31T14:40:30.070Z,2.77
2018-03-31T14:42:57.039Z,2.57
2018-03-31T14:45:24.050Z,2.30
2018-03-31T14:47:51.038Z,2.70
2018-03-31T14:50:18.006Z,2.80
2018-03-31T14:52:45.644Z,2.87
2018-03-31T14:55:12.966Z,3.27
2018-03-31T14:57:39.969Z,3.77
2018-03-31T15:00:06.937Z,2.90
2018-03-31T15:02:34.703Z,2.50
2018-03-31T15:05:02.714Z,2.63
2018-03-31T15:07:29.684Z,2.67
2018-03-31T15:09:56.695Z,2.90
2018-03-31T15:12:23.753Z,2.43
2018-03-31T15:14:50.758Z,2.90
2018-03-31T15:17:18.539Z,3.17
2018-03-31T15:19:45.524Z,2.50
2018-03-31T15:22:12.523Z,2.40
2018-03-31T15:24:39.483Z,2.83
2018-03-31T15:27:06.496Z,3.20
2018-03-31T15:29:34.405Z,2.47
2018-03-31T15:32:01.398Z,2.50
2018-03-31T15:34:28.403Z,2.60
2018-03-31T15:36:55.385Z,2.60
2018-03-31T15:39:22.399Z,3.00
2018-03-31T15:41:49.371Z,2.40
2018-03-31T15:44:16.388Z,2.57
2018-03-31T15:46:43.364Z,2.90
2018-03-31T15:49:10.364Z,2.87
2018-03-31T15:51:37.395Z,2.57
2018-03-31T15:54:05.150Z,2.63
2018-03-31T15:56:32.910Z,3.03
2018-03-31T15:59:00.678Z,2.83
2018-03-31T16:01:28.450Z,2.77
2018-03-31T16:03:56.182Z,3.07
2018-03-31T16:06:23.194Z,2.83
2018-03-31T16:08:50.182Z,2.67
2018-03-31T16:11:17.250Z,3.43
2018-03-31T16:13:45.008Z,2.60
2018-03-31T16:16:12.776Z,2.57
2018-03-31T16:18:40.574Z,2.50
2018-03-31T16:21:07.553Z,2.70
2018-03-31T16:23:34.560Z,3.00
2018-03-31T16:26:01.534Z,2.60
2018-03-31T16:28:28.578Z,5.37
2018-03-31T16:30:55.560Z,3.30
2018-03-31T16:33:22.591Z,2.60
2018-03-31T16:35:49.583Z,2.50
2018-03-31T16:38:16.584Z,2.57
2018-03-31T16:40:43.588Z,3.10
2018-03-31T16:43:10.569Z,2.53
2018-03-31T16:45:37.592Z,4.73
2018-03-31T16:48:05.676Z,4.60
2018-03-31T16:50:32.662Z,4.87
2018-03-31T16:52:59.670Z,5.27
2018-03-31T16:55:26.670Z,3.63
2018-03-31T16:57:54.448Z,4.80
2018-03-31T17:00:21.446Z,4.50
2018-03-31T17:02:48.449Z,3.73
2018-03-31T17:05:15.424Z,4.00
2018-03-31T17:07:42.425Z,3.83
2018-03-31T17:10:09.419Z,3.73
2018-03-31T17:12:36.450Z,4.30
2018-03-31T17:15:03.430Z,4.67
2018-03-31T17:17:30.455Z,3.60
2018-03-31T17:19:57.438Z,3.70
2018-03-31T17:22:24.431Z,4.13
2018-03-31T17:24:51.440Z,4.50
2018-03-31T17:27:19.182Z,4.97
2018-03-31T17:29:46.190Z,4.17
2018-03-31T17:32:13.167Z,4.63
2018-03-31T17:34:40.258Z,4.72
2018-03-31T17:37:07.263Z,4.60
2018-03-31T17:39:34.259Z,6.22
2018-03-31T17:42:01.338Z,4.95
2018-03-31T17:44:29.191Z,4.47
2018-03-31T17:46:56.210Z,6.53
2018-03-31T17:49:23.970Z,4.97
2018-03-31T17:51:51.730Z,4.97
2018-03-31T17:54:19.479Z,4.40
2018-03-31T17:56:46.508Z,4.70
2018-03-31T17:59:13.503Z,7.68
2018-03-31T18:01:41.276Z,5.37
2018-03-31T18:04:08.253Z,5.65
2018-03-31T18:06:35.266Z,5.40
2018-03-31T18:09:02.257Z,6.15
2018-03-31T18:11:29.293Z,5.95
2018-03-31T18:13:56.286Z,8.60
2018-03-31T18:16:23.576Z,7.60
2018-03-31T18:18:50.565Z,6.05
2018-03-31T18:21:17.556Z,8.32
2018-03-31T18:23:44.608Z,6.18
2018-03-31T18:26:11.641Z,5.60
2018-03-31T18:28:39.381Z,6.05
2018-03-31T18:31:06.415Z,8.68
2018-03-31T18:33:33.396Z,6.28
2018-03-31T18:36:01.182Z,7.72
2018-03-31T18:38:28.160Z,7.85
2018-03-31T18:40:55.154Z,7.18
2018-03-31T18:43:22.933Z,8.32
2018-03-31T18:45:49.942Z,8.18
2018-03-31T18:48:16.946Z,9.45
2018-03-31T18:50:43.935Z,8.10
2018-03-31T18:53:10.986Z,9.30
2018-03-31T18:55:37.971Z,8.65
2018-03-31T18:58:04.998Z,5.47
2018-03-31T19:00:32.767Z,7.68
2018-03-31T19:03:00.503Z,10.98
2018-03-31T19:05:28.335Z,6.40
2018-03-31T19:07:55.455Z,8.05
2018-03-31T19:10:22.620Z,7.53
2018-03-31T19:12:50.145Z,6.65
2018-03-31T19:15:17.642Z,8.43
2018-03-31T19:17:44.631Z,6.57
2018-03-31T19:20:18.244Z,7.45
2018-03-31T19:22:45.235Z,9.32
2018-03-31T19:25:17.899Z,5.30
2018-03-31T19:27:44.894Z,6.05
2018-03-31T19:30:11.966Z,5.43
2018-03-31T19:32:39.762Z,4.97
2018-03-31T19:35:06.782Z,5.32
2018-03-31T19:37:34.543Z,8.77
2018-03-31T19:40:02.306Z,11.50
2018-03-31T19:42:29.316Z,5.75
2018-03-31T19:44:56.350Z,6.22
2018-03-31T19:47:23.361Z,6.87
2018-03-31T19:49:51.129Z,5.78
2018-03-31T19:52:18.925Z,5.72
2018-03-31T19:54:45.932Z,7.20
2018-03-31T19:57:13.716Z,6.37
2018-03-31T19:59:40.716Z,7.35
2018-03-31T20:02:07.822Z,6.95
2018-03-31T20:04:35.008Z,8.10
2018-03-31T20:07:02.095Z,7.65
2018-03-31T20:09:29.835Z,7.65
2018-03-31T20:11:56.869Z,6.43
2018-03-31T20:14:23.868Z,8.35
2018-03-31T20:16:50.878Z,7.12
2018-03-31T20:19:17.875Z,8.23
2018-03-31T20:21:44.865Z,5.78
2018-03-31T20:24:11.883Z,7.57
2018-03-31T20:26:38.872Z,4.65
2018-03-31T20:29:05.869Z,6.45
2018-03-31T20:31:32.868Z,5.45
2018-03-31T20:34:00.665Z,6.75
2018-03-31T20:36:27.662Z,5.05
2018-03-31T20:38:54.673Z,5.37
2018-03-31T20:41:21.654Z,4.72
2018-03-31T20:43:48.679Z,4.50
2018-03-31T20:46:15.688Z,4.15
2018-03-31T20:48:43.438Z,5.72
2018-03-31T20:51:11.196Z,5.60
2018-03-31T20:53:39.017Z,6.28
2018-03-31T20:56:06.718Z,4.22
2018-03-31T20:58:33.696Z,6.30
2018-03-31T21:01:00.692Z,5.53
2018-03-31T21:03:27.683Z,4.87
2018-03-31T21:05:55.449Z,4.07
2018-03-31T21:08:22.434Z,4.30
2018-03-31T21:10:49.428Z,3.00
2018-03-31T21:13:17.181Z,3.40
2018-03-31T21:15:44.175Z,4.72
2018-03-31T21:18:11.160Z,3.35
2018-03-31T21:20:38.166Z,4.90
2018-03-31T21:23:05.179Z,3.75
2018-03-31T21:25:32.179Z,3.33
2018-03-31T21:27:59.186Z,3.58
2018-03-31T21:30:26.181Z,3.55
2018-03-31T21:32:53.253Z,4.45
2018-03-31T21:35:21.036Z,3.42
2018-03-31T21:37:48.811Z,8.18
2018-03-31T21:40:15.833Z,6.25
2018-03-31T21:42:42.840Z,4.30
2018-03-31T21:45:09.846Z,5.45
2018-03-31T21:47:37.604Z,6.60
2018-03-31T21:50:05.413Z,5.35
2018-03-31T21:52:32.406Z,4.87
2018-03-31T21:55:00.185Z,21.48
2018-03-31T21:57:27.916Z,14.25
2018-03-31T21:59:54.950Z,63.17
2018-03-31T22:02:21.971Z,44.30
2018-03-31T22:04:48.990Z,28.58
2018-03-31T22:07:16.771Z,15.73
2018-03-31T22:09:44.467Z,5.68
2018-03-31T22:12:11.484Z,30.05
2018-03-31T22:14:44.247Z,25.50
2018-03-31T22:17:12.003Z,6.12
2018-03-31T22:19:39.768Z,17.10
2018-03-31T22:22:07.531Z,13.73
2018-03-31T22:24:35.263Z,9.45
2018-03-31T22:27:02.273Z,6.35
2018-03-31T22:29:29.240Z,30.02
2018-03-31T22:31:56.257Z,7.32
2018-03-31T22:34:23.227Z,6.53
2018-03-31T22:36:50.240Z,6.07
2018-03-31T22:39:17.979Z,4.20
2018-03-31T22:41:44.970Z,9.20
2018-03-31T22:44:11.947Z,7.12
2018-03-31T22:46:38.939Z,5.70
2018-03-31T22:49:06.725Z,6.20
2018-03-31T22:51:33.697Z,5.57
2018-03-31T22:54:00.717Z,6.47
2018-03-31T22:56:27.704Z,6.95
2018-03-31T22:58:54.725Z,7.78
2018-03-31T23:01:21.702Z,6.40
2018-03-31T23:03:48.720Z,4.07
2018-03-31T23:06:15.677Z,15.13
2018-03-31T23:08:42.646Z,6.43
2018-03-31T23:11:09.642Z,6.62
2018-03-31T23:13:36.606Z,6.37
2018-03-31T23:16:03.617Z,8.95
2018-03-31T23:18:30.598Z,5.45
2018-03-31T23:20:57.603Z,5.15
2018-03-31T23:23:24.569Z,7.00
2018-03-31T23:25:51.590Z,10.15
2018-03-31T23:28:19.497Z,5.90
2018-03-31T23:30:46.493Z,6.35
2018-03-31T23:33:13.471Z,9.20
2018-03-31T23:35:40.457Z,7.05
2018-03-31T23:38:07.425Z,10.30
2018-03-31T23:40:34.391Z,10.00
2018-03-31T23:43:02.167Z,20.90
2018-03-31T23:45:29.129Z,12.80
2018-03-31T23:47:56.125Z,9.02
2018-03-31T23:50:23.096Z,8.68
2018-03-31T23:52:50.965Z,8.77
2018-03-31T23:55:18.701Z,6.82
2018-03-31T23:57:45.684Z,10.00
